createdAt,value
2019-03-24T00:00:07.511Z,27.73
2019-03-24T00:02:47.011Z,25.63
2019-03-24T00:05:16.186Z,27.32
2019-03-24T00:07:45.462Z,27.67
2019-03-24T00:10:17.430Z,28.90
2019-03-24T00:12:53.638Z,27.30
2019-03-24T00:15:30.927Z,26.97
2019-03-24T00:18:09.058Z,27.30
2019-03-24T00:20:38.469Z,26.30
2019-03-24T00:23:16.475Z,26.07
2019-03-24T00:25:45.618Z,28.60
2019-03-24T00:28:14.794Z,28.40
2019-03-24T00:30:43.968Z,26.50
2019-03-24T00:33:13.159Z,27.80
2019-03-24T00:35:42.312Z,25.87
2019-03-24T00:38:11.493Z,28.53
2019-03-24T00:40:40.713Z,27.27
2019-03-24T00:43:09.886Z,26.97
2019-03-24T00:45:39.067Z,29.40
2019-03-24T00:48:08.226Z,28.10
2019-03-24T00:50:37.361Z,26.40
2019-03-24T00:53:06.550Z,28.33
2019-03-24T00:55:35.693Z,28.50
2019-03-24T00:58:05.047Z,29.73
2019-03-24T01:00:45.141Z,31.07
2019-03-24T01:03:14.810Z,29.10
2019-03-24T01:05:44.131Z,29.53
2019-03-24T01:08:13.450Z,28.27
2019-03-24T01:10:42.699Z,30.00
2019-03-24T01:13:13.575Z,29.00
2019-03-24T01:15:47.662Z,29.20
2019-03-24T01:18:14.315Z,27.17
2019-03-24T01:20:43.562Z,26.67
2019-03-24T01:23:12.731Z,26.67
2019-03-24T01:25:41.902Z,28.07
2019-03-24T01:28:11.049Z,28.27
2019-03-24T01:30:40.299Z,28.20
2019-03-24T01:33:09.521Z,30.30
2019-03-24T01:35:38.713Z,28.13
2019-03-24T01:38:07.874Z,30.40
2019-03-24T01:40:37.060Z,29.97
2019-03-24T01:43:06.383Z,29.00
2019-03-24T01:45:35.549Z,28.70
2019-03-24T01:48:04.803Z,29.93
2019-03-24T01:50:33.978Z,28.93
2019-03-24T01:53:03.152Z,32.07
2019-03-24T01:55:32.398Z,30.00
2019-03-24T01:58:01.571Z,28.93
2019-03-24T02:00:31.021Z,30.47
2019-03-24T02:03:00.227Z,32.13
2019-03-24T02:05:29.430Z,30.60
2019-03-24T02:07:58.576Z,30.13
2019-03-24T02:10:27.816Z,29.10
2019-03-24T02:12:56.955Z,29.17
2019-03-24T02:15:26.143Z,29.43
2019-03-24T02:17:55.319Z,29.77
2019-03-24T02:20:24.487Z,31.70
2019-03-24T02:22:53.729Z,30.30
2019-03-24T02:25:22.898Z,29.77
2019-03-24T02:27:52.082Z,30.17
2019-03-24T02:30:21.361Z,29.77
2019-03-24T02:32:50.509Z,30.10
2019-03-24T02:35:19.761Z,28.20
2019-03-24T02:37:48.917Z,28.07
2019-03-24T02:40:18.429Z,33.60
2019-03-24T02:42:47.672Z,31.10
2019-03-24T02:45:16.907Z,30.70
2019-03-24T02:47:46.156Z,31.00
2019-03-24T02:50:15.343Z,32.50
2019-03-24T02:52:44.502Z,30.83
2019-03-24T02:55:13.812Z,33.47
2019-03-24T02:57:43.018Z,31.00
2019-03-24T03:00:12.352Z,33.83
2019-03-24T03:02:41.532Z,33.40
2019-03-24T03:05:11.239Z,31.73
2019-03-24T03:07:40.412Z,31.70
2019-03-24T03:10:10.855Z,29.07
2019-03-24T03:12:40.120Z,32.20
2019-03-24T03:15:09.604Z,31.55
2019-03-24T03:17:38.772Z,32.53
2019-03-24T03:20:08.735Z,32.20
2019-03-24T03:22:38.070Z,31.50
2019-03-24T03:25:07.493Z,33.73
2019-03-24T03:27:36.727Z,31.90
2019-03-24T03:30:06.961Z,32.43
2019-03-24T03:32:36.271Z,31.50
2019-03-24T03:35:06.300Z,33.53
2019-03-24T03:37:35.549Z,28.77
2019-03-24T03:40:05.066Z,33.58
2019-03-24T03:42:34.259Z,35.53
2019-03-24T03:45:03.501Z,32.90
2019-03-24T03:47:32.678Z,32.47
2019-03-24T03:50:01.850Z,35.47
2019-03-24T03:52:31.019Z,32.48
2019-03-24T03:55:00.198Z,33.30
2019-03-24T03:57:29.346Z,33.17
2019-03-24T03:59:58.502Z,33.80
2019-03-24T04:02:27.686Z,34.03
2019-03-24T04:04:56.876Z,34.80
2019-03-24T04:07:26.026Z,35.57
2019-03-24T04:09:55.265Z,31.10
2019-03-24T04:12:24.436Z,32.77
2019-03-24T04:14:53.617Z,34.60
2019-03-24T04:17:22.778Z,34.70
2019-03-24T04:19:51.955Z,35.48
2019-03-24T04:22:21.103Z,33.50
2019-03-24T04:24:50.278Z,35.43
2019-03-24T04:27:19.453Z,31.40
2019-03-24T04:29:48.639Z,31.93
2019-03-24T04:32:17.816Z,33.90
2019-03-24T04:34:47.038Z,34.77
2019-03-24T04:37:16.190Z,34.50
2019-03-24T04:39:45.367Z,34.33
2019-03-24T04:42:14.548Z,33.15
2019-03-24T04:44:43.727Z,34.93
2019-03-24T04:47:16.754Z,34.63
2019-03-24T04:49:43.793Z,36.13
2019-03-24T04:52:12.965Z,34.25
2019-03-24T04:54:42.228Z,32.90
2019-03-24T04:57:11.448Z,37.83
2019-03-24T04:59:40.624Z,34.80
2019-03-24T05:02:09.861Z,36.63
2019-03-24T05:04:39.045Z,39.07
2019-03-24T05:07:08.469Z,33.83
2019-03-24T05:09:37.823Z,37.37
2019-03-24T05:12:06.975Z,33.90
2019-03-24T05:14:36.161Z,34.90
2019-03-24T05:17:05.322Z,34.10
2019-03-24T05:19:34.483Z,34.47
2019-03-24T05:22:03.647Z,37.33
2019-03-24T05:24:32.807Z,34.40
2019-03-24T05:27:01.985Z,36.50
2019-03-24T05:29:31.158Z,34.85
2019-03-24T05:32:00.320Z,33.00
2019-03-24T05:34:29.496Z,35.90
2019-03-24T05:36:58.666Z,35.17
2019-03-24T05:39:27.836Z,38.03
2019-03-24T05:41:57.013Z,36.37
2019-03-24T05:44:26.172Z,38.20
2019-03-24T05:46:55.324Z,37.00
2019-03-24T05:49:24.474Z,35.47
2019-03-24T05:51:53.674Z,35.93
2019-03-24T05:54:22.824Z,36.23
2019-03-24T05:56:52.001Z,37.20
2019-03-24T05:59:21.150Z,36.83
2019-03-24T06:01:50.302Z,37.77
2019-03-24T06:04:19.460Z,36.13
2019-03-24T06:06:48.666Z,38.33
2019-03-24T06:09:17.839Z,35.23
2019-03-24T06:11:47.091Z,34.60
2019-03-24T06:14:16.356Z,34.77
2019-03-24T06:16:45.544Z,35.83
2019-03-24T06:19:14.733Z,34.70
2019-03-24T06:21:43.891Z,35.93
2019-03-24T06:24:13.056Z,37.37
2019-03-24T06:26:42.240Z,36.40
2019-03-24T06:29:11.421Z,35.70
2019-03-24T06:31:40.731Z,34.78
2019-03-24T06:34:09.977Z,35.73
2019-03-24T06:36:39.227Z,33.57
2019-03-24T06:39:08.649Z,34.43
2019-03-24T06:41:37.812Z,33.40
2019-03-24T06:44:07.045Z,35.77
2019-03-24T06:46:36.275Z,35.53
2019-03-24T06:49:05.525Z,36.30
2019-03-24T06:51:37.094Z,33.70
2019-03-24T06:54:06.278Z,35.47
2019-03-24T06:56:35.431Z,34.27
2019-03-24T06:59:04.603Z,33.40
2019-03-24T07:01:33.781Z,34.60
2019-03-24T07:04:02.949Z,37.40
2019-03-24T07:06:32.139Z,35.00
2019-03-24T07:09:01.298Z,32.47
2019-03-24T07:11:30.456Z,37.13
2019-03-24T07:13:59.646Z,34.13
2019-03-24T07:16:28.897Z,34.67
2019-03-24T07:18:58.114Z,32.03
2019-03-24T07:21:27.263Z,31.60
2019-03-24T07:23:56.567Z,33.03
2019-03-24T07:26:25.738Z,32.40
2019-03-24T07:28:54.917Z,33.47
2019-03-24T07:31:24.171Z,35.23
2019-03-24T07:33:53.377Z,34.97
2019-03-24T07:36:22.637Z,32.50
2019-03-24T07:38:51.808Z,32.40
2019-03-24T07:41:20.977Z,34.00
2019-03-24T07:43:50.158Z,31.40
2019-03-24T07:46:19.337Z,33.70
2019-03-24T07:48:48.550Z,31.67
2019-03-24T07:51:17.744Z,33.70
2019-03-24T07:53:47.014Z,30.50
2019-03-24T07:56:16.197Z,33.50
2019-03-24T07:58:46.111Z,30.60
2019-03-24T08:01:15.443Z,34.67
2019-03-24T08:03:44.649Z,30.63
2019-03-24T08:06:13.820Z,31.50
2019-03-24T08:08:44.395Z,29.13
2019-03-24T08:11:13.887Z,30.57
2019-03-24T08:13:53.320Z,29.83
2019-03-24T08:16:14.022Z,28.77
2019-03-24T08:18:43.275Z,28.33
2019-03-24T08:21:12.442Z,28.40
2019-03-24T08:23:41.640Z,29.30
2019-03-24T08:26:11.314Z,31.10
2019-03-24T08:28:40.463Z,26.27
2019-03-24T08:31:09.638Z,26.83
2019-03-24T08:33:38.859Z,26.87
2019-03-24T08:36:09.106Z,27.80
2019-03-24T08:38:38.279Z,29.27
2019-03-24T08:41:07.547Z,27.57
2019-03-24T08:43:36.937Z,29.13
2019-03-24T08:46:06.120Z,28.83
2019-03-24T08:48:40.795Z,27.80
2019-03-24T08:51:06.325Z,28.00
2019-03-24T08:53:35.486Z,27.53
2019-03-24T08:56:04.742Z,27.00
2019-03-24T08:58:33.909Z,28.80
2019-03-24T09:01:03.099Z,27.63
2019-03-24T09:03:32.758Z,27.77
2019-03-24T09:06:02.231Z,28.57
2019-03-24T09:08:31.415Z,26.37
2019-03-24T09:11:00.712Z,27.50
2019-03-24T09:13:29.906Z,25.37
2019-03-24T09:15:59.300Z,27.57
2019-03-24T09:18:28.502Z,26.20
2019-03-24T09:20:57.699Z,27.77
2019-03-24T09:23:26.895Z,28.20
2019-03-24T09:25:56.076Z,25.50
2019-03-24T09:28:25.281Z,28.53
2019-03-24T09:30:54.457Z,26.17
2019-03-24T09:33:23.654Z,25.40
2019-03-24T09:35:52.894Z,26.43
2019-03-24T09:38:22.131Z,26.93
2019-03-24T09:40:51.407Z,26.13
2019-03-24T09:43:20.659Z,28.80
2019-03-24T09:45:49.832Z,25.87
2019-03-24T09:48:19.429Z,27.30
2019-03-24T09:54:34.212Z,27.80
2019-03-24T09:57:03.362Z,28.83
2019-03-24T09:59:32.541Z,25.60
2019-03-24T10:02:01.755Z,27.03
2019-03-24T10:04:30.955Z,26.07
2019-03-24T10:07:00.218Z,24.83
2019-03-24T10:09:29.414Z,24.33
2019-03-24T10:11:58.606Z,25.67
2019-03-24T10:14:27.785Z,24.43
2019-03-24T10:16:56.960Z,26.90
2019-03-24T10:19:26.215Z,23.87
2019-03-24T10:21:55.391Z,25.67
2019-03-24T10:24:24.543Z,28.00
2019-03-24T10:26:53.760Z,25.27
2019-03-24T10:29:22.999Z,26.57
2019-03-24T10:31:52.185Z,24.80
2019-03-24T10:34:21.596Z,26.30
2019-03-24T10:36:51.155Z,24.77
2019-03-24T10:39:20.647Z,25.67
2019-03-24T10:41:49.848Z,25.07
2019-03-24T10:44:19.361Z,24.70
2019-03-24T10:46:48.675Z,25.60
2019-03-24T10:49:24.650Z,24.90
2019-03-24T10:51:48.817Z,26.30
2019-03-24T10:54:18.062Z,24.03
2019-03-24T10:56:47.510Z,26.27
2019-03-24T10:59:16.704Z,25.60
2019-03-24T11:01:45.926Z,22.87
2019-03-24T11:04:42.202Z,24.90
2019-03-24T11:07:11.364Z,23.10
2019-03-24T11:09:40.621Z,24.57
2019-03-24T11:12:09.872Z,23.57
2019-03-24T11:14:39.043Z,25.53
2019-03-24T11:17:08.464Z,24.00
2019-03-24T11:19:37.625Z,23.27
2019-03-24T11:22:06.804Z,25.57
2019-03-24T11:24:35.997Z,23.57
2019-03-24T11:27:05.316Z,25.00
2019-03-24T11:29:34.522Z,22.90
2019-03-24T11:32:03.745Z,23.93
2019-03-24T11:34:32.925Z,24.50
2019-03-24T11:37:02.088Z,23.77
2019-03-24T11:39:31.291Z,23.60
2019-03-24T11:42:00.435Z,23.83
2019-03-24T11:44:29.621Z,24.57
2019-03-24T11:46:58.797Z,25.40
2019-03-24T11:49:27.953Z,24.47
2019-03-24T11:51:57.291Z,23.90
2019-03-24T11:54:26.601Z,23.33
2019-03-24T11:56:56.282Z,23.67
2019-03-24T11:59:25.474Z,24.03
2019-03-24T12:01:54.584Z,22.67
2019-03-24T12:04:23.831Z,23.73
2019-03-24T12:06:53.033Z,22.57
2019-03-24T12:09:22.215Z,23.53
2019-03-24T12:11:51.370Z,22.53
2019-03-24T12:14:20.560Z,23.57
2019-03-24T12:16:49.801Z,24.57
2019-03-24T12:19:19.001Z,23.93
2019-03-24T12:21:48.167Z,23.43
2019-03-24T12:24:17.339Z,24.10
2019-03-24T12:26:46.612Z,23.53
2019-03-24T12:29:15.782Z,23.77
2019-03-24T12:31:45.025Z,22.87
2019-03-24T12:34:14.195Z,22.43
2019-03-24T12:36:43.467Z,22.53
2019-03-24T12:39:12.799Z,22.60
2019-03-24T12:41:41.966Z,22.77
2019-03-24T12:44:11.573Z,24.13
2019-03-24T12:46:40.740Z,23.13
2019-03-24T12:49:10.085Z,22.60
2019-03-24T12:51:39.334Z,25.57
2019-03-24T12:54:08.503Z,24.53
2019-03-24T12:56:37.675Z,20.73
2019-03-24T12:59:06.905Z,21.93
2019-03-24T13:01:36.313Z,20.30
2019-03-24T13:04:05.937Z,20.50
2019-03-24T13:06:35.109Z,19.93
2019-03-24T13:09:09.698Z,18.93
2019-03-24T13:11:38.868Z,19.87
2019-03-24T13:14:08.060Z,20.50
2019-03-24T13:16:37.218Z,19.80
2019-03-24T13:19:06.384Z,19.70
2019-03-24T13:21:35.637Z,21.03
2019-03-24T13:24:04.888Z,21.93
2019-03-24T13:26:34.343Z,23.70
2019-03-24T13:29:03.493Z,21.70
2019-03-24T13:31:34.381Z,22.23
2019-03-24T13:34:03.740Z,20.97
2019-03-24T13:36:33.205Z,20.40
2019-03-24T13:39:02.384Z,20.63
2019-03-24T13:41:31.567Z,20.97
2019-03-24T13:44:00.836Z,21.80
2019-03-24T13:46:30.068Z,20.73
2019-03-24T13:48:59.252Z,21.47
2019-03-24T13:51:28.451Z,21.23
2019-03-24T13:53:57.596Z,19.67
2019-03-24T13:56:26.817Z,21.53
2019-03-24T13:58:56.135Z,20.53
2019-03-24T14:01:25.329Z,20.87
2019-03-24T14:03:54.489Z,19.97
2019-03-24T14:06:23.696Z,22.30
2019-03-24T14:08:52.869Z,21.27
2019-03-24T14:11:24.319Z,22.83
2019-03-24T14:13:53.687Z,19.50
2019-03-24T14:16:23.220Z,22.13
2019-03-24T14:18:52.388Z,19.47
2019-03-24T14:21:21.567Z,21.40
2019-03-24T14:23:50.731Z,19.50
2019-03-24T14:26:19.886Z,21.00
2019-03-24T14:28:49.043Z,19.90
2019-03-24T14:31:18.231Z,20.10
2019-03-24T14:33:47.440Z,21.40
2019-03-24T14:36:16.666Z,20.10
2019-03-24T14:38:45.872Z,17.90
2019-03-24T14:41:15.156Z,21.00
2019-03-24T14:43:44.314Z,18.83
2019-03-24T14:46:13.502Z,18.47
2019-03-24T14:48:42.663Z,18.63
2019-03-24T14:51:11.829Z,18.50
2019-03-24T14:53:40.988Z,18.27
2019-03-24T14:56:10.320Z,19.60
2019-03-24T14:58:40.255Z,17.10
2019-03-24T15:01:09.570Z,17.77
2019-03-24T15:03:39.006Z,17.10
2019-03-24T15:06:08.256Z,16.30
2019-03-24T15:08:37.448Z,16.10
2019-03-24T15:11:06.696Z,14.77
2019-03-24T15:13:35.874Z,14.77
2019-03-24T15:16:05.052Z,14.03
2019-03-24T15:18:34.278Z,14.90
2019-03-24T15:21:06.009Z,13.83
2019-03-24T15:23:34.445Z,13.80
2019-03-24T15:26:03.696Z,14.23
2019-03-24T15:28:32.858Z,12.20
2019-03-24T15:31:02.022Z,12.67
2019-03-24T15:33:31.281Z,11.53
2019-03-24T15:36:00.457Z,13.67
2019-03-24T15:38:29.635Z,11.40
2019-03-24T15:40:58.801Z,11.70
2019-03-24T15:43:28.053Z,12.33
2019-03-24T15:45:57.231Z,9.70
2019-03-24T15:48:26.404Z,12.10
2019-03-24T15:50:55.559Z,11.70
2019-03-24T15:53:24.750Z,13.13
2019-03-24T15:55:53.934Z,13.43
2019-03-24T15:58:23.156Z,13.20
2019-03-24T16:00:52.405Z,13.97
2019-03-24T16:03:21.587Z,14.07
2019-03-24T16:05:56.421Z,11.30
2019-03-24T16:08:25.825Z,12.43
2019-03-24T16:10:55.092Z,11.80
2019-03-24T16:13:24.256Z,11.97
2019-03-24T16:15:53.495Z,13.40
2019-03-24T16:18:22.806Z,13.60
2019-03-24T16:20:51.963Z,13.30
2019-03-24T16:23:21.142Z,13.73
2019-03-24T16:25:50.293Z,14.50
2019-03-24T16:28:19.487Z,13.50
2019-03-24T16:30:48.681Z,11.93
2019-03-24T16:33:17.898Z,11.90
2019-03-24T16:35:47.203Z,13.33
2019-03-24T16:38:16.419Z,13.70
2019-03-24T16:40:45.724Z,13.23
2019-03-24T16:43:15.341Z,13.10
2019-03-24T16:45:44.558Z,11.60
2019-03-24T16:48:14.053Z,12.00
2019-03-24T16:50:47.141Z,12.93
2019-03-24T16:53:17.034Z,11.40
2019-03-24T16:55:57.228Z,11.80
2019-03-24T16:58:30.276Z,11.90
2019-03-24T17:01:02.461Z,13.80
2019-03-24T17:03:37.518Z,11.60
2019-03-24T17:06:10.228Z,12.70
2019-03-24T17:08:46.840Z,11.83
2019-03-24T17:11:22.353Z,11.70
2019-03-24T17:13:52.131Z,10.23
2019-03-24T17:16:23.248Z,11.40
2019-03-24T17:18:56.252Z,10.67
2019-03-24T17:21:30.037Z,11.83
2019-03-24T17:24:03.753Z,11.83
2019-03-24T17:26:36.180Z,12.30
2019-03-24T17:29:06.801Z,12.63
2019-03-24T17:31:39.164Z,12.53
2019-03-24T17:34:14.063Z,12.53
2019-03-24T17:36:50.423Z,13.00
2019-03-24T17:39:21.181Z,11.60
2019-03-24T17:41:57.372Z,11.47
2019-03-24T17:44:43.953Z,11.73
2019-03-24T17:47:18.461Z,13.23
2019-03-24T17:49:50.732Z,14.43
2019-03-24T17:52:23.616Z,16.13
2019-03-24T17:54:54.605Z,14.70
2019-03-24T17:57:25.121Z,13.20
2019-03-24T17:59:56.503Z,13.27
2019-03-24T18:02:31.177Z,13.50
2019-03-24T18:05:01.984Z,12.73
2019-03-24T18:07:33.489Z,13.80
2019-03-24T18:10:04.031Z,13.47
2019-03-24T18:12:36.585Z,14.20
2019-03-24T18:15:10.688Z,13.27
2019-03-24T18:17:46.079Z,14.80
2019-03-24T18:20:20.530Z,13.63
2019-03-24T18:22:51.005Z,14.90
2019-03-24T18:25:25.891Z,13.97
2019-03-24T18:28:06.050Z,13.30
2019-03-24T18:30:36.373Z,14.40
2019-03-24T18:33:09.257Z,13.00
2019-03-24T18:35:39.577Z,13.20
2019-03-24T18:38:12.533Z,14.90
2019-03-24T18:40:43.032Z,12.93
2019-03-24T18:43:14.254Z,13.40
2019-03-24T18:45:45.403Z,12.13
2019-03-24T18:48:18.082Z,12.07
2019-03-24T18:50:50.211Z,11.17
2019-03-24T18:53:26.261Z,12.10
2019-03-24T18:55:57.132Z,12.97
2019-03-24T18:58:27.135Z,13.07
2019-03-24T19:00:57.571Z,11.50
2019-03-24T19:03:30.952Z,10.70
2019-03-24T19:06:01.803Z,11.87
2019-03-24T19:09:12.402Z,10.80
2019-03-24T19:11:44.188Z,12.93
2019-03-24T19:14:22.539Z,12.07
2019-03-24T19:19:51.210Z,10.70
2019-03-24T19:22:33.247Z,10.90
2019-03-24T19:25:00.984Z,10.00
2019-03-24T19:27:43.022Z,10.87
2019-03-24T19:30:16.968Z,12.53
2019-03-24T19:33:13.634Z,12.50
2019-03-24T19:35:48.325Z,9.23
2019-03-24T19:38:30.513Z,8.40
2019-03-24T19:41:00.700Z,8.63
2019-03-24T19:43:34.109Z,8.57
2019-03-24T19:46:06.509Z,9.00
2019-03-24T19:48:39.706Z,7.40
2019-03-24T19:51:15.478Z,6.40
2019-03-24T19:54:16.134Z,7.03
2019-03-24T19:56:49.460Z,6.10
2019-03-24T19:59:22.688Z,6.50
2019-03-24T20:02:08.105Z,5.40
2019-03-24T20:05:02.349Z,5.73
2019-03-24T20:07:50.082Z,5.50
2019-03-24T20:10:20.473Z,5.13
2019-03-24T20:12:55.633Z,4.67
2019-03-24T20:15:27.329Z,6.80
2019-03-24T20:18:02.389Z,4.00
2019-03-24T20:20:35.354Z,3.73
2019-03-24T20:23:15.956Z,3.87
2019-03-24T20:25:47.665Z,3.58
2019-03-24T20:28:19.095Z,2.60
2019-03-24T20:31:00.523Z,2.87
2019-03-24T20:33:32.614Z,3.13
2019-03-24T20:36:05.528Z,2.97
2019-03-24T20:38:36.452Z,3.93
2019-03-24T20:41:20.962Z,3.37
2019-03-24T20:43:57.247Z,3.80
2019-03-24T20:46:31.543Z,3.10
2019-03-24T20:49:09.329Z,3.72
2019-03-24T20:51:50.511Z,3.30
2019-03-24T20:54:30.427Z,3.60
2019-03-24T20:57:12.846Z,2.53
2019-03-24T20:59:59.877Z,3.17
2019-03-24T21:02:45.017Z,2.70
2019-03-24T21:05:37.372Z,2.10
2019-03-24T21:08:35.111Z,2.50
2019-03-24T21:11:10.984Z,3.07
2019-03-24T21:13:45.440Z,2.20
2019-03-24T21:16:18.559Z,2.20
2019-03-24T21:18:57.265Z,2.40
2019-03-24T21:21:28.962Z,2.23
2019-03-24T21:24:09.448Z,2.67
2019-03-24T21:26:44.627Z,2.20
2019-03-24T21:29:16.346Z,2.87
2019-03-24T21:31:46.330Z,2.53
2019-03-24T21:34:18.964Z,2.37
2019-03-24T21:36:49.927Z,2.63
2019-03-24T21:39:23.290Z,2.30
2019-03-24T21:41:53.948Z,1.83
2019-03-24T21:44:24.330Z,2.13
2019-03-24T21:47:16.345Z,1.80
2019-03-24T21:49:47.701Z,1.97
2019-03-24T21:52:20.804Z,2.00
2019-03-24T21:54:52.153Z,2.10
2019-03-24T21:57:33.625Z,1.90
2019-03-24T22:00:06.783Z,2.93
2019-03-24T22:02:39.479Z,2.57
2019-03-24T22:05:12.608Z,1.90
2019-03-24T22:07:51.589Z,3.03
2019-03-24T22:10:24.779Z,2.57
2019-03-24T22:13:15.444Z,2.17
2019-03-24T22:15:46.129Z,2.20
2019-03-24T22:18:27.149Z,2.57
2019-03-24T22:20:59.183Z,1.90
2019-03-24T22:23:33.688Z,2.35
2019-03-24T22:26:03.575Z,1.92
2019-03-24T22:28:41.372Z,2.65
2019-03-24T22:31:17.993Z,2.40
2019-03-24T22:33:51.213Z,2.50
2019-03-24T22:36:32.846Z,2.22
2019-03-24T22:39:06.046Z,2.70
2019-03-24T22:41:39.889Z,2.70
2019-03-24T22:47:15.349Z,2.17
2019-03-24T22:49:47.380Z,1.95
2019-03-24T22:52:20.845Z,2.30
2019-03-24T22:54:51.985Z,2.67
2019-03-24T22:57:25.342Z,2.55
2019-03-24T22:59:59.523Z,2.20
2019-03-24T23:02:33.833Z,2.95
2019-03-24T23:05:06.833Z,2.00
2019-03-24T23:07:40.387Z,1.90
2019-03-24T23:10:12.094Z,2.30
2019-03-24T23:12:41.891Z,1.82
2019-03-24T23:15:13.709Z,2.15
2019-03-24T23:17:51.745Z,1.92
2019-03-24T23:20:34.608Z,2.17
2019-03-24T23:23:34.822Z,1.92
2019-03-24T23:26:05.305Z,2.15
2019-03-24T23:28:39.982Z,2.70
2019-03-24T23:31:13.580Z,2.10
2019-03-24T23:34:06.893Z,2.52
2019-03-24T23:36:37.324Z,2.67
2019-03-24T23:39:07.940Z,2.00
2019-03-24T23:41:37.805Z,2.08
2019-03-24T23:44:08.064Z,1.85
2019-03-24T23:46:45.201Z,1.80
2019-03-24T23:49:25.146Z,3.15
2019-03-24T23:52:04.968Z,1.52
2019-03-24T23:54:40.043Z,2.10
2019-03-24T23:57:10.109Z,2.75
2019-03-24T23:59:40.940Z,3.42
